sensor_id;sensor_type;location;lat;lon;timestamp;temperature;humidity
40670;DHT22;26355;45.528;9.234;2023-05-16T00:00:33;20.00;99.90
40670;DHT22;26355;45.528;9.234;2023-05-16T00:03:00;20.00;99.90
40670;DHT22;26355;45.528;9.234;2023-05-16T00:05:27;19.90;99.90
40670;DHT22;26355;45.528;9.234;2023-05-16T00:07:52;19.90;99.90
40670;DHT22;26355;45.528;9.234;2023-05-16T00:10:18;20.00;99.90
40670;DHT22;26355;45.528;9.234;2023-05-16T00:12:43;19.90;99.90
40670;DHT22;26355;45.528;9.234;2023-05-16T00:15:10;19.90;99.90
40670;DHT22;26355;45.528;9.234;2023-05-16T00:17:39;19.90;99.90
40670;DHT22;26355;45.528;9.234;2023-05-16T00:20:05;19.90;99.90
40670;DHT22;26355;45.528;9.234;2023-05-16T00:22:32;19.90;99.90
40670;DHT22;26355;45.528;9.234;2023-05-16T00:24:58;19.90;99.90
40670;DHT22;26355;45.528;9.234;2023-05-16T00:27:23;19.90;99.90
40670;DHT22;26355;45.528;9.234;2023-05-16T00:29:49;20.20;99.90
40670;DHT22;26355;45.528;9.234;2023-05-16T00:32:15;19.90;99.90
40670;DHT22;26355;45.528;9.234;2023-05-16T00:34:41;19.90;99.90
40670;DHT22;26355;45.528;9.234;2023-05-16T00:37:06;19.80;99.90
40670;DHT22;26355;45.528;9.234;2023-05-16T00:39:32;19.80;99.90
40670;DHT22;26355;45.528;9.234;2023-05-16T00:41:57;19.80;99.90
40670;DHT22;26355;45.528;9.234;2023-05-16T00:44:23;19.80;99.90
40670;DHT22;26355;45.528;9.234;2023-05-16T00:46:48;19.80;99.90
40670;DHT22;26355;45.528;9.234;2023-05-16T00:49:14;19.60;99.90
40670;DHT22;26355;45.528;9.234;2023-05-16T00:51:40;19.70;99.90
40670;DHT22;26355;45.528;9.234;2023-05-16T00:54:06;19.70;99.90
40670;DHT22;26355;45.528;9.234;2023-05-16T00:56:32;19.70;99.90
40670;DHT22;26355;45.528;9.234;2023-05-16T00:58:58;19.60;99.90
40670;DHT22;26355;45.528;9.234;2023-05-16T01:01:24;19.70;99.90
40670;DHT22;26355;45.528;9.234;2023-05-16T01:03:51;19.60;99.90
40670;DHT22;26355;45.528;9.234;2023-05-16T01:06:17;19.50;99.90
40670;DHT22;26355;45.528;9.234;2023-05-16T01:08:43;19.50;99.90
40670;DHT22;26355;45.528;9.234;2023-05-16T01:11:42;19.60;99.90
40670;DHT22;26355;45.528;9.234;2023-05-16T01:14:29;19.50;99.90
40670;DHT22;26355;45.528;9.234;2023-05-16T01:17:06;19.50;99.90
40670;DHT22;26355;45.528;9.234;2023-05-16T01:25:38;19.50;99.90
40670;DHT22;26355;45.528;9.234;2023-05-16T01:28:12;19.40;99.90
40670;DHT22;26355;45.528;9.234;2023-05-16T01:30:39;19.30;99.90
40670;DHT22;26355;45.528;9.234;2023-05-16T01:33:09;19.30;99.90
40670;DHT22;26355;45.528;9.234;2023-05-16T01:35:44;19.30;99.90
40670;DHT22;26355;45.528;9.234;2023-05-16T01:38:24;19.20;99.90
40670;DHT22;26355;45.528;9.234;2023-05-16T01:41:01;19.10;99.90
40670;DHT22;26355;45.528;9.234;2023-05-16T01:43:41;19.20;99.90
40670;DHT22;26355;45.528;9.234;2023-05-16T01:46:19;19.20;99.90
40670;DHT22;26355;45.528;9.234;2023-05-16T01:48:52;19.20;99.90
40670;DHT22;26355;45.528;9.234;2023-05-16T01:51:24;19.30;99.90
40670;DHT22;26355;45.528;9.234;2023-05-16T01:53:57;19.10;99.90
40670;DHT22;26355;45.528;9.234;2023-05-16T01:56:26;19.20;99.90
40670;DHT22;26355;45.528;9.234;2023-05-16T01:58:54;19.10;99.90
40670;DHT22;26355;45.528;9.234;2023-05-16T02:01:19;19.20;99.90
40670;DHT22;26355;45.528;9.234;2023-05-16T02:03:45;19.20;99.90
40670;DHT22;26355;45.528;9.234;2023-05-16T02:06:10;19.10;99.90
40670;DHT22;26355;45.528;9.234;2023-05-16T02:08:36;19.00;99.90
40670;DHT22;26355;45.528;9.234;2023-05-16T02:11:02;19.00;99.90
40670;DHT22;26355;45.528;9.234;2023-05-16T02:13:27;18.90;99.90
40670;DHT22;26355;45.528;9.234;2023-05-16T02:15:53;19.00;99.90
40670;DHT22;26355;45.528;9.234;2023-05-16T02:18:18;18.90;99.90
40670;DHT22;26355;45.528;9.234;2023-05-16T02:20:44;18.80;99.90
40670;DHT22;26355;45.528;9.234;2023-05-16T02:23:10;18.80;99.90
40670;DHT22;26355;45.528;9.234;2023-05-16T02:25:35;18.80;99.90
40670;DHT22;26355;45.528;9.234;2023-05-16T02:28:01;18.80;99.90
40670;DHT22;26355;45.528;9.234;2023-05-16T02:30:26;18.70;99.90
40670;DHT22;26355;45.528;9.234;2023-05-16T02:32:52;18.70;99.90
40670;DHT22;26355;45.528;9.234;2023-05-16T02:35:18;18.60;99.90
40670;DHT22;26355;45.528;9.234;2023-05-16T02:37:44;18.60;99.90
40670;DHT22;26355;45.528;9.234;2023-05-16T02:40:11;18.60;99.90
40670;DHT22;26355;45.528;9.234;2023-05-16T02:42:37;18.60;99.90
40670;DHT22;26355;45.528;9.234;2023-05-16T02:45:03;18.60;99.90
40670;DHT22;26355;45.528;9.234;2023-05-16T02:47:28;18.60;99.90
40670;DHT22;26355;45.528;9.234;2023-05-16T02:49:54;18.60;99.90
40670;DHT22;26355;45.528;9.234;2023-05-16T02:52:20;18.50;99.90
40670;DHT22;26355;45.528;9.234;2023-05-16T02:54:46;18.50;99.90
40670;DHT22;26355;45.528;9.234;2023-05-16T02:57:12;18.50;99.90
40670;DHT22;26355;45.528;9.234;2023-05-16T02:59:37;18.50;99.90
40670;DHT22;26355;45.528;9.234;2023-05-16T03:02:03;18.60;99.90
40670;DHT22;26355;45.528;9.234;2023-05-16T03:04:29;18.50;99.90
40670;DHT22;26355;45.528;9.234;2023-05-16T03:06:54;18.50;99.90
40670;DHT22;26355;45.528;9.234;2023-05-16T03:09:20;18.50;99.90
40670;DHT22;26355;45.528;9.234;2023-05-16T03:11:46;18.60;99.90
40670;DHT22;26355;45.528;9.234;2023-05-16T03:14:12;18.50;99.90
40670;DHT22;26355;45.528;9.234;2023-05-16T03:16:38;18.50;99.90
40670;DHT22;26355;45.528;9.234;2023-05-16T03:19:05;18.40;99.90
40670;DHT22;26355;45.528;9.234;2023-05-16T03:21:31;18.50;99.90
40670;DHT22;26355;45.528;9.234;2023-05-16T03:23:57;18.50;99.90
40670;DHT22;26355;45.528;9.234;2023-05-16T03:26:23;18.40;99.90
40670;DHT22;26355;45.528;9.234;2023-05-16T03:28:49;18.50;99.90
40670;DHT22;26355;45.528;9.234;2023-05-16T03:31:15;18.50;99.90
40670;DHT22;26355;45.528;9.234;2023-05-16T03:33:41;18.40;99.90
40670;DHT22;26355;45.528;9.234;2023-05-16T03:36:07;18.30;99.90
40670;DHT22;26355;45.528;9.234;2023-05-16T03:38:33;18.30;99.90
40670;DHT22;26355;45.528;9.234;2023-05-16T03:40:58;18.30;99.90
40670;DHT22;26355;45.528;9.234;2023-05-16T03:43:25;18.30;99.90
40670;DHT22;26355;45.528;9.234;2023-05-16T03:45:50;18.60;99.90
40670;DHT22;26355;45.528;9.234;2023-05-16T03:48:16;18.10;99.90
40670;DHT22;26355;45.528;9.234;2023-05-16T03:50:41;18.10;99.90
40670;DHT22;26355;45.528;9.234;2023-05-16T03:53:07;18.10;99.90
40670;DHT22;26355;45.528;9.234;2023-05-16T03:55:34;18.10;99.90
40670;DHT22;26355;45.528;9.234;2023-05-16T03:57:59;18.10;99.90
40670;DHT22;26355;45.528;9.234;2023-05-16T04:00:25;18.00;99.90
40670;DHT22;26355;45.528;9.234;2023-05-16T04:02:51;18.00;99.90
40670;DHT22;26355;45.528;9.234;2023-05-16T04:05:17;17.90;99.90
40670;DHT22;26355;45.528;9.234;2023-05-16T04:07:42;18.00;99.90
40670;DHT22;26355;45.528;9.234;2023-05-16T04:10:08;18.10;99.90
40670;DHT22;26355;45.528;9.234;2023-05-16T04:12:34;18.00;99.90
40670;DHT22;26355;45.528;9.234;2023-05-16T04:15:01;18.00;99.90
40670;DHT22;26355;45.528;9.234;2023-05-16T04:17:27;18.00;99.90
40670;DHT22;26355;45.528;9.234;2023-05-16T04:19:52;18.00;99.90
40670;DHT22;26355;45.528;9.234;2023-05-16T04:22:20;17.90;99.90
40670;DHT22;26355;45.528;9.234;2023-05-16T04:24:47;18.00;99.90
40670;DHT22;26355;45.528;9.234;2023-05-16T04:27:12;18.00;99.90
40670;DHT22;26355;45.528;9.234;2023-05-16T04:29:38;17.90;99.90
40670;DHT22;26355;45.528;9.234;2023-05-16T04:32:04;17.90;99.90
40670;DHT22;26355;45.528;9.234;2023-05-16T04:34:32;17.80;99.90
40670;DHT22;26355;45.528;9.234;2023-05-16T04:36:58;17.70;99.90
40670;DHT22;26355;45.528;9.234;2023-05-16T04:39:24;17.80;99.90
40670;DHT22;26355;45.528;9.234;2023-05-16T04:41:50;17.70;99.90
40670;DHT22;26355;45.528;9.234;2023-05-16T04:44:15;17.70;99.90
40670;DHT22;26355;45.528;9.234;2023-05-16T04:46:41;17.80;99.90
40670;DHT22;26355;45.528;9.234;2023-05-16T04:49:07;17.80;99.90
40670;DHT22;26355;45.528;9.234;2023-05-16T04:51:33;17.90;99.90
40670;DHT22;26355;45.528;9.234;2023-05-16T04:53:59;17.80;99.90
40670;DHT22;26355;45.528;9.234;2023-05-16T04:56:25;17.70;99.90
40670;DHT22;26355;45.528;9.234;2023-05-16T04:58:51;17.90;99.90
40670;DHT22;26355;45.528;9.234;2023-05-16T05:01:17;17.90;99.90
40670;DHT22;26355;45.528;9.234;2023-05-16T05:03:42;17.80;99.90
40670;DHT22;26355;45.528;9.234;2023-05-16T05:06:08;17.80;99.90
40670;DHT22;26355;45.528;9.234;2023-05-16T05:08:34;17.80;99.90
40670;DHT22;26355;45.528;9.234;2023-05-16T05:10:59;17.70;99.90
40670;DHT22;26355;45.528;9.234;2023-05-16T05:13:25;17.70;99.90
40670;DHT22;26355;45.528;9.234;2023-05-16T05:15:51;17.70;99.90
40670;DHT22;26355;45.528;9.234;2023-05-16T05:18:17;17.70;99.90
40670;DHT22;26355;45.528;9.234;2023-05-16T05:20:42;17.80;99.90
40670;DHT22;26355;45.528;9.234;2023-05-16T05:23:08;17.90;99.90
40670;DHT22;26355;45.528;9.234;2023-05-16T05:25:35;18.00;99.90
40670;DHT22;26355;45.528;9.234;2023-05-16T05:28:01;18.00;99.90
40670;DHT22;26355;45.528;9.234;2023-05-16T05:30:27;18.00;99.90
40670;DHT22;26355;45.528;9.234;2023-05-16T05:32:53;18.10;99.90
40670;DHT22;26355;45.528;9.234;2023-05-16T05:35:19;18.10;99.90
40670;DHT22;26355;45.528;9.234;2023-05-16T05:37:45;18.40;99.90
40670;DHT22;26355;45.528;9.234;2023-05-16T05:40:11;18.30;99.90
40670;DHT22;26355;45.528;9.234;2023-05-16T05:42:36;18.30;99.90
40670;DHT22;26355;45.528;9.234;2023-05-16T05:45:02;18.30;99.90
40670;DHT22;26355;45.528;9.234;2023-05-16T05:47:28;18.50;99.90
40670;DHT22;26355;45.528;9.234;2023-05-16T05:49:54;18.40;99.90
40670;DHT22;26355;45.528;9.234;2023-05-16T05:52:19;18.50;99.90
40670;DHT22;26355;45.528;9.234;2023-05-16T05:54:46;18.40;99.90
40670;DHT22;26355;45.528;9.234;2023-05-16T05:57:12;18.30;99.90
40670;DHT22;26355;45.528;9.234;2023-05-16T05:59:38;18.20;99.90
40670;DHT22;26355;45.528;9.234;2023-05-16T06:02:03;18.10;99.90
40670;DHT22;26355;45.528;9.234;2023-05-16T06:04:29;18.10;99.90
40670;DHT22;26355;45.528;9.234;2023-05-16T06:06:55;18.50;99.90
40670;DHT22;26355;45.528;9.234;2023-05-16T06:09:20;18.30;99.90
40670;DHT22;26355;45.528;9.234;2023-05-16T06:11:46;18.40;99.90
40670;DHT22;26355;45.528;9.234;2023-05-16T06:14:13;18.40;99.90
40670;DHT22;26355;45.528;9.234;2023-05-16T06:16:39;18.60;99.90
40670;DHT22;26355;45.528;9.234;2023-05-16T06:19:05;18.60;99.90
40670;DHT22;26355;45.528;9.234;2023-05-16T06:21:31;18.70;99.90
40670;DHT22;26355;45.528;9.234;2023-05-16T06:23:57;18.70;99.90
40670;DHT22;26355;45.528;9.234;2023-05-16T06:26:23;18.80;99.90
40670;DHT22;26355;45.528;9.234;2023-05-16T06:28:49;18.80;99.90
40670;DHT22;26355;45.528;9.234;2023-05-16T06:31:15;18.80;99.90
40670;DHT22;26355;45.528;9.234;2023-05-16T06:33:40;18.80;99.90
40670;DHT22;26355;45.528;9.234;2023-05-16T06:36:06;18.80;99.90
40670;DHT22;26355;45.528;9.234;2023-05-16T06:38:32;18.70;99.90
40670;DHT22;26355;45.528;9.234;2023-05-16T06:40:57;18.80;99.90
40670;DHT22;26355;45.528;9.234;2023-05-16T06:43:23;18.80;99.90
40670;DHT22;26355;45.528;9.234;2023-05-16T06:45:48;18.70;99.90
40670;DHT22;26355;45.528;9.234;2023-05-16T06:48:14;18.70;99.90
40670;DHT22;26355;45.528;9.234;2023-05-16T06:50:40;18.60;99.90
40670;DHT22;26355;45.528;9.234;2023-05-16T06:53:06;18.70;99.90
40670;DHT22;26355;45.528;9.234;2023-05-16T06:55:32;18.50;99.90
40670;DHT22;26355;45.528;9.234;2023-05-16T06:57:58;18.50;99.90
40670;DHT22;26355;45.528;9.234;2023-05-16T07:00:23;18.70;99.90
40670;DHT22;26355;45.528;9.234;2023-05-16T07:02:49;18.60;99.90
40670;DHT22;26355;45.528;9.234;2023-05-16T07:05:14;18.70;99.90
40670;DHT22;26355;45.528;9.234;2023-05-16T07:07:40;18.50;99.90
40670;DHT22;26355;45.528;9.234;2023-05-16T07:10:06;18.60;99.90
40670;DHT22;26355;45.528;9.234;2023-05-16T07:12:31;18.60;99.90
40670;DHT22;26355;45.528;9.234;2023-05-16T07:14:57;18.60;99.90
40670;DHT22;26355;45.528;9.234;2023-05-16T07:17:23;18.70;99.90
40670;DHT22;26355;45.528;9.234;2023-05-16T07:19:49;18.70;99.90
40670;DHT22;26355;45.528;9.234;2023-05-16T07:22:15;18.70;99.90
40670;DHT22;26355;45.528;9.234;2023-05-16T07:24:40;18.70;99.90
40670;DHT22;26355;45.528;9.234;2023-05-16T07:27:06;18.70;99.90
40670;DHT22;26355;45.528;9.234;2023-05-16T07:29:32;18.80;99.90
40670;DHT22;26355;45.528;9.234;2023-05-16T07:31:57;18.90;99.90
40670;DHT22;26355;45.528;9.234;2023-05-16T07:34:23;19.00;99.90
40670;DHT22;26355;45.528;9.234;2023-05-16T07:36:49;19.00;99.90
40670;DHT22;26355;45.528;9.234;2023-05-16T07:39:14;19.00;99.90
40670;DHT22;26355;45.528;9.234;2023-05-16T07:41:40;19.10;99.90
40670;DHT22;26355;45.528;9.234;2023-05-16T07:44:06;19.20;99.90
40670;DHT22;26355;45.528;9.234;2023-05-16T07:46:31;19.30;99.90
40670;DHT22;26355;45.528;9.234;2023-05-16T07:48:57;19.30;99.90
40670;DHT22;26355;45.528;9.234;2023-05-16T07:51:22;19.30;99.90
40670;DHT22;26355;45.528;9.234;2023-05-16T07:53:48;19.40;99.90
40670;DHT22;26355;45.528;9.234;2023-05-16T07:56:13;19.80;99.90
40670;DHT22;26355;45.528;9.234;2023-05-16T07:58:40;19.50;99.90
40670;DHT22;26355;45.528;9.234;2023-05-16T08:01:06;19.40;99.90
40670;DHT22;26355;45.528;9.234;2023-05-16T08:03:32;19.40;99.90
40670;DHT22;26355;45.528;9.234;2023-05-16T08:05:57;19.40;99.90
40670;DHT22;26355;45.528;9.234;2023-05-16T08:08:23;19.40;99.90
40670;DHT22;26355;45.528;9.234;2023-05-16T08:10:48;19.50;99.90
40670;DHT22;26355;45.528;9.234;2023-05-16T08:13:14;19.20;99.90
40670;DHT22;26355;45.528;9.234;2023-05-16T08:15:39;19.00;99.90
40670;DHT22;26355;45.528;9.234;2023-05-16T08:18:14;19.00;99.90
40670;DHT22;26355;45.528;9.234;2023-05-16T08:20:40;19.10;99.90
40670;DHT22;26355;45.528;9.234;2023-05-16T08:23:09;19.00;99.90
40670;DHT22;26355;45.528;9.234;2023-05-16T08:25:35;19.00;99.90
40670;DHT22;26355;45.528;9.234;2023-05-16T08:28:04;18.90;99.90
40670;DHT22;26355;45.528;9.234;2023-05-16T08:30:29;18.90;99.90
40670;DHT22;26355;45.528;9.234;2023-05-16T08:32:55;18.80;99.90
40670;DHT22;26355;45.528;9.234;2023-05-16T08:35:21;18.80;99.90
40670;DHT22;26355;45.528;9.234;2023-05-16T08:37:46;18.80;99.90
40670;DHT22;26355;45.528;9.234;2023-05-16T08:40:12;18.60;99.90
40670;DHT22;26355;45.528;9.234;2023-05-16T08:42:39;18.50;99.90
40670;DHT22;26355;45.528;9.234;2023-05-16T08:45:08;18.50;99.90
40670;DHT22;26355;45.528;9.234;2023-05-16T08:47:35;18.60;99.90
40670;DHT22;26355;45.528;9.234;2023-05-16T08:50:07;18.60;99.90
40670;DHT22;26355;45.528;9.234;2023-05-16T08:52:34;18.70;99.90
40670;DHT22;26355;45.528;9.234;2023-05-16T08:55:03;18.60;99.90
40670;DHT22;26355;45.528;9.234;2023-05-16T08:57:32;18.70;99.90
40670;DHT22;26355;45.528;9.234;2023-05-16T08:59:59;18.60;99.90
40670;DHT22;26355;45.528;9.234;2023-05-16T09:02:25;18.60;99.90
40670;DHT22;26355;45.528;9.234;2023-05-16T09:04:52;18.50;99.90
40670;DHT22;26355;45.528;9.234;2023-05-16T09:07:18;18.40;99.90
40670;DHT22;26355;45.528;9.234;2023-05-16T09:09:44;18.40;99.90
40670;DHT22;26355;45.528;9.234;2023-05-16T09:12:10;18.40;99.90
40670;DHT22;26355;45.528;9.234;2023-05-16T09:14:36;18.40;99.90
40670;DHT22;26355;45.528;9.234;2023-05-16T09:17:06;18.40;99.90
40670;DHT22;26355;45.528;9.234;2023-05-16T09:19:39;18.40;99.90
40670;DHT22;26355;45.528;9.234;2023-05-16T09:25:21;18.30;99.90
40670;DHT22;26355;45.528;9.234;2023-05-16T09:27:51;18.40;99.90
40670;DHT22;26355;45.528;9.234;2023-05-16T09:30:30;18.50;99.90
40670;DHT22;26355;45.528;9.234;2023-05-16T09:32:56;18.40;99.90
40670;DHT22;26355;45.528;9.234;2023-05-16T09:35:22;18.40;99.90
40670;DHT22;26355;45.528;9.234;2023-05-16T09:37:49;18.10;99.90
40670;DHT22;26355;45.528;9.234;2023-05-16T09:40:21;18.00;99.90
40670;DHT22;26355;45.528;9.234;2023-05-16T09:43:15;17.90;99.90
40670;DHT22;26355;45.528;9.234;2023-05-16T09:45:45;18.30;99.90
40670;DHT22;26355;45.528;9.234;2023-05-16T09:48:11;18.10;99.90
40670;DHT22;26355;45.528;9.234;2023-05-16T09:50:39;18.30;99.90
40670;DHT22;26355;45.528;9.234;2023-05-16T09:53:07;18.30;99.90
40670;DHT22;26355;45.528;9.234;2023-05-16T09:55:33;18.50;99.90
40670;DHT22;26355;45.528;9.234;2023-05-16T09:57:58;18.40;99.90
40670;DHT22;26355;45.528;9.234;2023-05-16T10:00:32;18.40;99.90
40670;DHT22;26355;45.528;9.234;2023-05-16T10:02:59;18.60;99.90
40670;DHT22;26355;45.528;9.234;2023-05-16T10:05:26;18.70;99.90
40670;DHT22;26355;45.528;9.234;2023-05-16T10:07:54;18.20;99.90
40670;DHT22;26355;45.528;9.234;2023-05-16T10:10:21;18.20;99.90
40670;DHT22;26355;45.528;9.234;2023-05-16T10:12:57;18.40;99.90
40670;DHT22;26355;45.528;9.234;2023-05-16T10:15:26;18.50;99.90
40670;DHT22;26355;45.528;9.234;2023-05-16T10:17:55;18.60;99.90
40670;DHT22;26355;45.528;9.234;2023-05-16T10:20:24;18.60;99.90
40670;DHT22;26355;45.528;9.234;2023-05-16T10:22:52;18.50;99.90
40670;DHT22;26355;45.528;9.234;2023-05-16T10:25:31;18.50;99.90
40670;DHT22;26355;45.528;9.234;2023-05-16T10:27:58;18.60;99.90
40670;DHT22;26355;45.528;9.234;2023-05-16T10:30:24;18.60;99.90
40670;DHT22;26355;45.528;9.234;2023-05-16T10:32:51;18.70;99.90
40670;DHT22;26355;45.528;9.234;2023-05-16T10:35:18;18.60;99.90
40670;DHT22;26355;45.528;9.234;2023-05-16T10:37:45;18.50;99.90
40670;DHT22;26355;45.528;9.234;2023-05-16T10:40:11;18.50;99.90
40670;DHT22;26355;45.528;9.234;2023-05-16T10:42:37;18.60;99.90
40670;DHT22;26355;45.528;9.234;2023-05-16T10:45:17;18.40;99.90
40670;DHT22;26355;45.528;9.234;2023-05-16T10:48:00;18.20;99.90
40670;DHT22;26355;45.528;9.234;2023-05-16T10:55:39;18.40;99.90
40670;DHT22;26355;45.528;9.234;2023-05-16T10:58:04;18.40;99.90
40670;DHT22;26355;45.528;9.234;2023-05-16T11:00:30;18.40;99.90
40670;DHT22;26355;45.528;9.234;2023-05-16T11:03:06;18.50;99.90
40670;DHT22;26355;45.528;9.234;2023-05-16T11:05:50;18.60;99.90
40670;DHT22;26355;45.528;9.234;2023-05-16T11:08:16;18.40;99.90
40670;DHT22;26355;45.528;9.234;2023-05-16T11:10:42;18.50;99.90
40670;DHT22;26355;45.528;9.234;2023-05-16T11:13:07;18.50;99.90
40670;DHT22;26355;45.528;9.234;2023-05-16T11:15:33;18.50;99.90
40670;DHT22;26355;45.528;9.234;2023-05-16T11:18:15;18.40;99.90
40670;DHT22;26355;45.528;9.234;2023-05-16T11:20:41;18.50;99.90
40670;DHT22;26355;45.528;9.234;2023-05-16T11:23:19;18.50;99.90
40670;DHT22;26355;45.528;9.234;2023-05-16T11:25:47;18.60;99.90
40670;DHT22;26355;45.528;9.234;2023-05-16T11:28:15;18.60;99.90
40670;DHT22;26355;45.528;9.234;2023-05-16T11:30:47;18.70;99.90
40670;DHT22;26355;45.528;9.234;2023-05-16T11:33:17;18.80;99.90
40670;DHT22;26355;45.528;9.234;2023-05-16T11:35:43;18.70;99.90
40670;DHT22;26355;45.528;9.234;2023-05-16T11:38:24;18.80;99.90
40670;DHT22;26355;45.528;9.234;2023-05-16T11:40:50;18.70;99.90
40670;DHT22;26355;45.528;9.234;2023-05-16T11:43:18;18.70;99.90
40670;DHT22;26355;45.528;9.234;2023-05-16T11:45:44;18.70;99.90
40670;DHT22;26355;45.528;9.234;2023-05-16T11:48:10;18.60;99.90
40670;DHT22;26355;45.528;9.234;2023-05-16T11:50:35;18.60;99.90
40670;DHT22;26355;45.528;9.234;2023-05-16T11:53:01;18.60;99.90
40670;DHT22;26355;45.528;9.234;2023-05-16T11:55:29;19.10;99.90
40670;DHT22;26355;45.528;9.234;2023-05-16T11:57:56;18.70;99.90
40670;DHT22;26355;45.528;9.234;2023-05-16T12:00:24;18.50;99.90
40670;DHT22;26355;45.528;9.234;2023-05-16T12:02:51;18.40;99.90
40670;DHT22;26355;45.528;9.234;2023-05-16T12:05:18;18.40;99.90
40670;DHT22;26355;45.528;9.234;2023-05-16T12:07:46;18.40;99.90
40670;DHT22;26355;45.528;9.234;2023-05-16T12:10:15;18.70;99.90
40670;DHT22;26355;45.528;9.234;2023-05-16T12:12:45;18.60;99.90
40670;DHT22;26355;45.528;9.234;2023-05-16T12:15:12;18.40;99.90
40670;DHT22;26355;45.528;9.234;2023-05-16T12:17:40;18.40;99.90
40670;DHT22;26355;45.528;9.234;2023-05-16T12:20:07;18.50;99.90
40670;DHT22;26355;45.528;9.234;2023-05-16T12:22:45;18.60;99.90
40670;DHT22;26355;45.528;9.234;2023-05-16T12:25:31;18.60;99.90
40670;DHT22;26355;45.528;9.234;2023-05-16T12:28:01;18.60;99.90
40670;DHT22;26355;45.528;9.234;2023-05-16T12:30:28;18.80;99.90
40670;DHT22;26355;45.528;9.234;2023-05-16T12:33:02;19.10;99.90
40670;DHT22;26355;45.528;9.234;2023-05-16T12:35:32;18.90;99.90
40670;DHT22;26355;45.528;9.234;2023-05-16T12:37:58;18.90;99.90
40670;DHT22;26355;45.528;9.234;2023-05-16T12:40:30;19.00;99.90
40670;DHT22;26355;45.528;9.234;2023-05-16T12:42:56;19.10;99.90
40670;DHT22;26355;45.528;9.234;2023-05-16T12:45:22;19.20;99.90
40670;DHT22;26355;45.528;9.234;2023-05-16T12:47:48;19.30;99.90
40670;DHT22;26355;45.528;9.234;2023-05-16T12:50:15;19.50;99.90
40670;DHT22;26355;45.528;9.234;2023-05-16T12:52:58;19.40;99.90
40670;DHT22;26355;45.528;9.234;2023-05-16T12:55:24;19.40;99.90
40670;DHT22;26355;45.528;9.234;2023-05-16T12:57:50;19.40;99.90
40670;DHT22;26355;45.528;9.234;2023-05-16T13:00:18;19.30;99.90
40670;DHT22;26355;45.528;9.234;2023-05-16T13:02:44;19.20;99.90
40670;DHT22;26355;45.528;9.234;2023-05-16T13:05:10;19.00;99.90
40670;DHT22;26355;45.528;9.234;2023-05-16T13:07:36;19.00;99.90
40670;DHT22;26355;45.528;9.234;2023-05-16T13:10:06;19.50;99.90
40670;DHT22;26355;45.528;9.234;2023-05-16T13:12:32;19.10;99.90
40670;DHT22;26355;45.528;9.234;2023-05-16T13:14:57;19.20;99.90
40670;DHT22;26355;45.528;9.234;2023-05-16T13:17:23;19.20;99.90
40670;DHT22;26355;45.528;9.234;2023-05-16T13:19:49;19.20;99.90
40670;DHT22;26355;45.528;9.234;2023-05-16T13:22:15;19.40;99.90
40670;DHT22;26355;45.528;9.234;2023-05-16T13:24:41;19.30;99.90
40670;DHT22;26355;45.528;9.234;2023-05-16T13:27:06;19.50;99.90
40670;DHT22;26355;45.528;9.234;2023-05-16T13:29:32;19.50;99.90
40670;DHT22;26355;45.528;9.234;2023-05-16T13:31:58;19.60;99.90
40670;DHT22;26355;45.528;9.234;2023-05-16T13:34:24;19.60;99.90
40670;DHT22;26355;45.528;9.234;2023-05-16T13:37:03;19.70;99.90
40670;DHT22;26355;45.528;9.234;2023-05-16T13:39:29;19.60;99.90
40670;DHT22;26355;45.528;9.234;2023-05-16T13:41:54;19.60;99.90
40670;DHT22;26355;45.528;9.234;2023-05-16T13:44:20;19.50;99.90
40670;DHT22;26355;45.528;9.234;2023-05-16T13:46:46;19.60;99.90
40670;DHT22;26355;45.528;9.234;2023-05-16T13:49:12;19.80;99.90
40670;DHT22;26355;45.528;9.234;2023-05-16T13:51:38;20.00;99.90
40670;DHT22;26355;45.528;9.234;2023-05-16T13:54:06;19.80;99.90
40670;DHT22;26355;45.528;9.234;2023-05-16T13:56:32;19.70;99.90
40670;DHT22;26355;45.528;9.234;2023-05-16T13:58:58;20.10;99.90
40670;DHT22;26355;45.528;9.234;2023-05-16T14:01:24;20.10;99.90
40670;DHT22;26355;45.528;9.234;2023-05-16T14:03:49;20.10;99.90
40670;DHT22;26355;45.528;9.234;2023-05-16T14:06:18;20.00;99.90
40670;DHT22;26355;45.528;9.234;2023-05-16T14:08:43;19.90;99.90
40670;DHT22;26355;45.528;9.234;2023-05-16T14:11:09;20.00;99.90
40670;DHT22;26355;45.528;9.234;2023-05-16T14:13:35;20.00;99.90
40670;DHT22;26355;45.528;9.234;2023-05-16T14:16:00;20.00;99.90
40670;DHT22;26355;45.528;9.234;2023-05-16T14:18:26;19.90;99.90
40670;DHT22;26355;45.528;9.234;2023-05-16T14:20:52;19.90;99.90
40670;DHT22;26355;45.528;9.234;2023-05-16T14:23:20;19.80;99.90
40670;DHT22;26355;45.528;9.234;2023-05-16T14:25:46;19.80;99.90
40670;DHT22;26355;45.528;9.234;2023-05-16T14:28:11;19.70;99.90
40670;DHT22;26355;45.528;9.234;2023-05-16T14:30:37;19.90;99.90
40670;DHT22;26355;45.528;9.234;2023-05-16T14:33:02;19.90;99.90
40670;DHT22;26355;45.528;9.234;2023-05-16T14:35:28;19.80;99.90
40670;DHT22;26355;45.528;9.234;2023-05-16T14:37:54;19.80;99.90
40670;DHT22;26355;45.528;9.234;2023-05-16T14:40:19;19.60;99.90
40670;DHT22;26355;45.528;9.234;2023-05-16T14:42:46;19.50;99.90
40670;DHT22;26355;45.528;9.234;2023-05-16T14:45:11;19.60;99.90
40670;DHT22;26355;45.528;9.234;2023-05-16T14:47:37;19.60;99.90
40670;DHT22;26355;45.528;9.234;2023-05-16T14:50:03;19.80;99.90
40670;DHT22;26355;45.528;9.234;2023-05-16T14:52:29;19.90;99.90
40670;DHT22;26355;45.528;9.234;2023-05-16T14:54:54;19.90;99.90
40670;DHT22;26355;45.528;9.234;2023-05-16T14:57:21;19.90;99.90
40670;DHT22;26355;45.528;9.234;2023-05-16T14:59:46;19.90;99.90
40670;DHT22;26355;45.528;9.234;2023-05-16T15:02:13;20.00;99.90
40670;DHT22;26355;45.528;9.234;2023-05-16T15:04:39;19.70;99.90
40670;DHT22;26355;45.528;9.234;2023-05-16T15:07:05;19.80;99.90
40670;DHT22;26355;45.528;9.234;2023-05-16T15:09:30;19.80;99.90
40670;DHT22;26355;45.528;9.234;2023-05-16T15:11:56;19.90;99.90
40670;DHT22;26355;45.528;9.234;2023-05-16T15:14:22;20.10;99.90
40670;DHT22;26355;45.528;9.234;2023-05-16T15:16:47;20.20;99.90
40670;DHT22;26355;45.528;9.234;2023-05-16T15:19:13;20.20;99.90
40670;DHT22;26355;45.528;9.234;2023-05-16T15:21:38;20.20;99.90
40670;DHT22;26355;45.528;9.234;2023-05-16T15:24:04;20.30;99.90
40670;DHT22;26355;45.528;9.234;2023-05-16T15:26:30;20.30;99.90
40670;DHT22;26355;45.528;9.234;2023-05-16T15:28:56;20.20;99.90
40670;DHT22;26355;45.528;9.234;2023-05-16T15:31:22;20.20;99.90
40670;DHT22;26355;45.528;9.234;2023-05-16T15:33:50;20.20;99.90
40670;DHT22;26355;45.528;9.234;2023-05-16T15:36:15;20.30;99.90
40670;DHT22;26355;45.528;9.234;2023-05-16T15:38:41;20.10;99.90
40670;DHT22;26355;45.528;9.234;2023-05-16T15:41:09;20.00;99.90
40670;DHT22;26355;45.528;9.234;2023-05-16T15:43:35;19.80;99.90